Time;durP1;ratioP1;P1;durP2;ratioP2;P2;SDS_P1;SDS_P2;PMS_P1;PMS_P2;Temp;Humidity;BMP_temperature;BMP_pressure;BME280_temperature;BME280_humidity;BME280_pressure;Samples;Min_cycle;Max_cycle;Signal;HPM_P1;HPM_P2
2023/10/03 00:02:09;;;;;;;;;;;21.80;55.80;;;;;;10035029;28;94346;-67
2023/10/03 00:07:11;;;;;;;;;;;21.80;55.70;;;;;;10013842;28;93692;-67
2023/10/03 00:12:13;;;;;;;;;;;21.70;55.70;;;;;;10049859;28;93508;-67
2023/10/03 00:17:14;;;;;;;;;;;21.80;55.70;;;;;;10043566;28;94536;-71
2023/10/03 00:22:16;;;;;;;;;;;21.70;55.60;;;;;;10054221;28;96520;-67
2023/10/03 00:27:18;;;;;;;;;;;21.70;55.60;;;;;;10041004;28;93945;-67
2023/10/03 00:32:20;;;;;;;;;;;21.70;55.50;;;;;;10042178;28;93482;-71
2023/10/03 00:37:23;;;;;;;;;;;21.70;55.50;;;;;;10040496;28;93744;-67
2023/10/03 00:42:25;;;;;;;;;;;21.70;55.40;;;;;;10038793;28;94423;-68
2023/10/03 00:47:27;;;;;;;;;;;21.70;55.40;;;;;;10040604;28;94730;-67
2023/10/03 00:52:31;;;;;;;;;;;21.70;55.50;;;;;;10058497;28;93348;-67
2023/10/03 00:57:33;;;;;;;;;;;21.70;55.40;;;;;;10050585;28;93818;-67
2023/10/03 01:02:45;;;;;;;;;;;21.70;55.40;;;;;;10414441;23;93797;-56
2023/10/03 01:07:49;;;;;;;;;;;21.70;55.30;;;;;;10075565;28;96447;-58
2023/10/03 01:12:54;;;;;;;;;;;21.70;55.20;;;;;;10065117;28;97145;-59
2023/10/03 01:17:59;;;;;;;;;;;21.60;55.10;;;;;;10059956;28;93787;-58
2023/10/03 01:23:06;;;;;;;;;;;21.60;56.20;;;;;;10075496;28;94732;-58
2023/10/03 01:28:11;;;;;;;;;;;21.60;55.10;;;;;;10060134;28;94394;-58
2023/10/03 01:33:13;;;;;;;;;;;21.60;55.10;;;;;;10059404;28;94389;-58
2023/10/03 01:38:15;;;;;;;;;;;21.60;55.30;;;;;;10070930;28;95127;-58
2023/10/03 01:43:17;;;;;;;;;;;21.60;55.10;;;;;;10065977;28;93558;-58
2023/10/03 01:48:19;;;;;;;;;;;21.60;55.20;;;;;;10078612;28;96154;-59
2023/10/03 01:53:20;;;;;;;;;;;21.70;55.20;;;;;;10054947;28;93559;-59
2023/10/03 01:58:24;;;;;;;;;;;21.60;55.00;;;;;;10064349;28;92897;-58
2023/10/03 02:03:28;;;;;;;;;;;21.70;55.20;;;;;;10055011;28;95837;-58
2023/10/03 02:08:33;;;;;;;;;;;21.70;55.10;;;;;;10065207;28;94676;-58
2023/10/03 02:13:40;;;;;;;;;;;21.70;55.00;;;;;;10058391;28;94508;-59
2023/10/03 02:18:43;;;;;;;;;;;21.70;55.00;;;;;;10074531;28;93446;-58
2023/10/03 02:23:47;;;;;;;;;;;21.70;54.80;;;;;;10082590;28;94455;-60
2023/10/03 02:28:50;;;;;;;;;;;21.70;54.80;;;;;;10055678;28;94480;-58
2023/10/03 02:33:53;;;;;;;;;;;21.70;55.00;;;;;;10081510;28;94387;-58
2023/10/03 02:38:56;;;;;;;;;;;21.70;54.60;;;;;;10046233;28;93695;-58
2023/10/03 02:43:58;;;;;;;;;;;21.80;55.10;;;;;;10064175;28;94108;-58
2023/10/03 02:49:00;;;;;;;;;;;21.70;54.70;;;;;;10057229;28;94604;-59
2023/10/03 02:54:02;;;;;;;;;;;21.80;54.80;;;;;;10067084;28;96821;-59
2023/10/03 02:59:06;;;;;;;;;;;21.70;54.60;;;;;;10073933;28;94975;-58
2023/10/03 03:04:11;;;;;;;;;;;21.70;54.60;;;;;;10059293;28;93433;-58
2023/10/03 03:09:18;;;;;;;;;;;21.80;54.60;;;;;;10062488;28;95613;-57
2023/10/03 03:14:20;;;;;;;;;;;21.80;54.50;;;;;;10069372;28;96023;-57
2023/10/03 03:19:23;;;;;;;;;;;21.70;54.40;;;;;;10063800;28;93653;-58
2023/10/03 03:24:34;;;;;;;;;;;21.80;54.50;;;;;;10048538;28;93440;-58
2023/10/03 03:29:36;;;;;;;;;;;21.80;54.40;;;;;;10078956;28;92571;-58
2023/10/03 03:34:38;;;;;;;;;;;21.70;54.40;;;;;;10049003;28;93488;-58
2023/10/03 03:39:52;;;;;;;;;;;21.70;54.40;;;;;;10057634;28;93863;-58
2023/10/03 03:44:54;;;;;;;;;;;21.70;54.40;;;;;;10054366;28;95825;-58
2023/10/03 03:49:56;;;;;;;;;;;21.70;54.20;;;;;;10058328;28;95012;-58
2023/10/03 03:55:03;;;;;;;;;;;21.70;54.30;;;;;;10069742;28;94576;-59
2023/10/03 04:00:19;;;;;;;;;;;21.70;54.20;;;;;;10053131;28;94441;-59
2023/10/03 04:05:21;;;;;;;;;;;21.70;54.10;;;;;;10065538;28;94483;-58
2023/10/03 04:10:22;;;;;;;;;;;21.70;54.30;;;;;;10059209;28;94598;-59
2023/10/03 04:15:25;;;;;;;;;;;21.70;54.30;;;;;;10072755;28;93507;-58
2023/10/03 04:20:35;;;;;;;;;;;21.70;54.30;;;;;;10058127;28;92708;-59
2023/10/03 04:25:39;;;;;;;;;;;21.70;54.40;;;;;;10070573;28;94141;-58
2023/10/03 04:30:41;;;;;;;;;;;21.70;54.40;;;;;;10094271;28;94554;-58
2023/10/03 04:35:43;;;;;;;;;;;21.70;54.60;;;;;;10061152;28;96813;-59
2023/10/03 04:40:47;;;;;;;;;;;21.70;54.50;;;;;;10078182;28;94516;-58
2023/10/03 04:45:51;;;;;;;;;;;21.70;54.60;;;;;;10086475;28;93311;-59
2023/10/03 04:50:53;;;;;;;;;;;21.60;54.60;;;;;;10106172;28;93974;-59
2023/10/03 04:55:55;;;;;;;;;;;21.60;54.50;;;;;;10074818;28;94415;-59
2023/10/03 05:00:57;;;;;;;;;;;21.60;54.60;;;;;;10061672;28;94432;-57
2023/10/03 05:06:01;;;;;;;;;;;21.60;54.60;;;;;;10059913;28;93457;-56
2023/10/03 05:11:03;;;;;;;;;;;21.60;54.90;;;;;;10074143;28;93678;-55
2023/10/03 05:16:07;;;;;;;;;;;21.60;54.70;;;;;;10074928;28;94404;-58
2023/10/03 05:21:10;;;;;;;;;;;21.60;54.90;;;;;;10066897;28;94459;-59
2023/10/03 05:26:18;;;;;;;;;;;21.60;55.00;;;;;;10067762;28;96854;-57
2023/10/03 05:31:19;;;;;;;;;;;21.70;57.10;;;;;;10064892;28;94482;-57
2023/10/03 05:36:22;;;;;;;;;;;21.60;57.70;;;;;;10062287;28;94849;-58
2023/10/03 05:41:25;;;;;;;;;;;21.60;58.40;;;;;;10075371;28;94485;-57
2023/10/03 05:46:28;;;;;;;;;;;21.60;58.20;;;;;;10080914;28;94631;-57
2023/10/03 05:51:30;;;;;;;;;;;21.60;58.30;;;;;;10072903;28;95637;-57
2023/10/03 05:56:32;;;;;;;;;;;21.70;59.30;;;;;;10070605;28;94127;-60
2023/10/03 06:01:34;;;;;;;;;;;21.70;60.30;;;;;;10069158;28;92493;-59
2023/10/03 06:06:36;;;;;;;;;;;21.60;60.20;;;;;;10057702;28;93906;-54
2023/10/03 06:11:38;;;;;;;;;;;21.70;60.30;;;;;;10059612;28;92700;-57
2023/10/03 06:16:40;;;;;;;;;;;21.60;60.80;;;;;;10064823;28;96870;-52
2023/10/03 06:21:42;;;;;;;;;;;21.70;63.10;;;;;;10070368;28;94811;-54
2023/10/03 06:26:47;;;;;;;;;;;21.80;63.60;;;;;;10068784;28;94319;-51
2023/10/03 06:31:51;;;;;;;;;;;21.70;62.90;;;;;;10077406;28;94129;-53
2023/10/03 06:36:53;;;;;;;;;;;21.70;63.80;;;;;;10061220;28;94276;-53
2023/10/03 06:41:55;;;;;;;;;;;21.80;63.70;;;;;;10067669;28;93349;-52
2023/10/03 06:46:58;;;;;;;;;;;21.80;66.70;;;;;;10060540;28;93711;-52
2023/10/03 06:52:01;;;;;;;;;;;21.80;65.30;;;;;;10073506;28;95536;-57
2023/10/03 06:57:04;;;;;;;;;;;21.80;65.20;;;;;;10071420;28;93811;-50
2023/10/03 07:02:06;;;;;;;;;;;21.80;65.40;;;;;;10057139;28;93528;-52
2023/10/03 07:07:08;;;;;;;;;;;21.80;67.00;;;;;;10065430;28;96852;-53
2023/10/03 07:12:10;;;;;;;;;;;21.80;67.20;;;;;;10078279;28;94162;-52
2023/10/03 07:17:14;;;;;;;;;;;21.80;66.40;;;;;;10076795;28;95044;-50
2023/10/03 07:22:18;;;;;;;;;;;21.80;67.00;;;;;;10046856;28;94888;-53
2023/10/03 07:27:21;;;;;;;;;;;21.80;66.80;;;;;;10067343;28;94483;-53
2023/10/03 07:32:23;;;;;;;;;;;21.70;66.60;;;;;;10051631;28;92876;-53
2023/10/03 07:37:25;;;;;;;;;;;21.70;66.50;;;;;;10051743;28;94484;-53
2023/10/03 07:42:27;;;;;;;;;;;21.70;66.50;;;;;;10066835;28;93736;-48
2023/10/03 07:47:29;;;;;;;;;;;21.70;66.40;;;;;;10057276;28;94430;-50
2023/10/03 07:52:31;;;;;;;;;;;21.70;66.30;;;;;;10054882;28;94474;-53
2023/10/03 07:57:33;;;;;;;;;;;21.70;66.40;;;;;;10063949;28;96901;-49
2023/10/03 08:02:34;;;;;;;;;;;21.70;66.10;;;;;;10057947;28;94431;-52
2023/10/03 08:07:38;;;;;;;;;;;21.70;66.10;;;;;;10082956;28;94687;-51
2023/10/03 08:12:40;;;;;;;;;;;21.60;65.90;;;;;;10070267;28;94799;-49
2023/10/03 08:17:49;;;;;;;;;;;21.60;65.90;;;;;;10064286;28;94927;-47
2023/10/03 08:22:51;;;;;;;;;;;21.60;65.80;;;;;;10062853;28;94519;-52
2023/10/03 08:27:55;;;;;;;;;;;21.60;65.70;;;;;;10071125;28;94525;-50
2023/10/03 08:33:01;;;;;;;;;;;21.60;65.70;;;;;;10060016;28;93697;-52
2023/10/03 08:38:04;;;;;;;;;;;21.60;65.70;;;;;;10066305;28;93172;-51
2023/10/03 08:43:10;;;;;;;;;;;21.60;65.50;;;;;;10050724;28;93497;-52
2023/10/03 08:48:12;;;;;;;;;;;21.60;65.50;;;;;;10072148;28;95917;-49
2023/10/03 08:53:17;;;;;;;;;;;21.50;65.40;;;;;;10061238;28;92863;-53
2023/10/03 08:58:19;;;;;;;;;;;21.50;65.40;;;;;;10059865;28;94700;-49
2023/10/03 09:03:21;;;;;;;;;;;21.50;65.20;;;;;;10058711;28;93249;-53
2023/10/03 09:08:25;;;;;;;;;;;21.50;65.20;;;;;;10063425;28;94335;-48
2023/10/03 09:13:28;;;;;;;;;;;21.50;65.10;;;;;;10074217;28;94478;-53
2023/10/03 09:18:31;;;;;;;;;;;21.50;65.10;;;;;;10059669;28;93731;-50
2023/10/03 09:23:39;;;;;;;;;;;21.50;65.00;;;;;;10060995;28;93665;-51
2023/10/03 09:28:43;;;;;;;;;;;21.50;65.00;;;;;;10061653;28;93260;-52
2023/10/03 09:33:45;;;;;;;;;;;21.50;64.90;;;;;;10078818;28;94431;-52
2023/10/03 09:38:47;;;;;;;;;;;21.50;64.90;;;;;;10048216;28;96359;-53
2023/10/03 09:43:56;;;;;;;;;;;21.50;64.90;;;;;;10054145;28;94563;-53
2023/10/03 09:49:08;;;;;;;;;;;21.50;64.80;;;;;;10065725;28;95252;-53
2023/10/03 09:54:11;;;;;;;;;;;21.50;64.80;;;;;;10070356;28;94635;-52
2023/10/03 09:59:17;;;;;;;;;;;21.50;64.60;;;;;;10061697;28;94775;-66
2023/10/03 10:04:20;;;;;;;;;;;21.50;64.60;;;;;;10053937;28;94558;-48
2023/10/03 10:09:28;;;;;;;;;;;21.60;64.50;;;;;;10067832;28;94411;-49
2023/10/03 10:14:51;;;;;;;;;;;21.50;64.40;;;;;;10078131;28;93574;-51
2023/10/03 10:20:12;;;;;;;;;;;21.60;64.50;;;;;;10065696;28;94657;-53
2023/10/03 10:25:25;;;;;;;;;;;21.50;64.30;;;;;;10064232;28;93450;-50
2023/10/03 10:30:27;;;;;;;;;;;21.50;64.20;;;;;;10068411;28;96114;-49
2023/10/03 10:35:49;;;;;;;;;;;21.60;64.20;;;;;;10073031;28;95053;-49
2023/10/03 10:41:09;;;;;;;;;;;21.60;64.10;;;;;;10058013;28;93276;-52
2023/10/03 10:46:31;;;;;;;;;;;21.60;64.00;;;;;;10053093;28;93452;-51
2023/10/03 10:51:53;;;;;;;;;;;21.60;64.00;;;;;;10374935;28;88853;-48
2023/10/03 10:57:03;;;;;;;;;;;21.60;64.00;;;;;;10354751;28;88252;-50
2023/10/03 11:02:06;;;;;;;;;;;21.60;64.00;;;;;;10361498;28;90681;-53
2023/10/03 11:07:08;;;;;;;;;;;21.50;63.90;;;;;;10356241;28;90506;-52
2023/10/03 11:12:10;;;;;;;;;;;21.60;64.00;;;;;;10360473;28;88299;-49
2023/10/03 11:17:12;;;;;;;;;;;21.50;63.90;;;;;;10358722;28;89180;-53
2023/10/03 11:22:14;;;;;;;;;;;21.50;63.80;;;;;;10362278;28;89843;-50
2023/10/03 11:27:23;;;;;;;;;;;21.50;63.90;;;;;;10362028;28;89526;-53
2023/10/03 11:32:26;;;;;;;;;;;21.50;63.80;;;;;;10365135;28;89916;-52
2023/10/03 11:37:30;;;;;;;;;;;21.50;63.80;;;;;;10361782;28;89609;-49
2023/10/03 11:42:32;;;;;;;;;;;21.50;63.80;;;;;;10361980;28;88992;-53
2023/10/03 11:47:33;;;;;;;;;;;21.50;63.90;;;;;;10361249;28;89569;-53
2023/10/03 11:52:37;;;;;;;;;;;21.50;63.90;;;;;;10360624;28;88238;-54
2023/10/03 11:57:39;;;;;;;;;;;21.50;63.90;;;;;;10359340;28;88403;-54
2023/10/03 12:02:45;;;;;;;;;;;21.50;63.90;;;;;;10336520;28;89631;-54
2023/10/03 12:07:47;;;;;;;;;;;21.40;63.70;;;;;;10323297;28;89282;-52
2023/10/03 12:12:49;;;;;;;;;;;21.40;63.70;;;;;;10334982;28;90409;-53
2023/10/03 12:17:51;;;;;;;;;;;21.40;63.70;;;;;;10331432;28;89595;-53
2023/10/03 12:22:53;;;;;;;;;;;21.40;63.80;;;;;;10331634;28;90117;-55
2023/10/03 12:27:55;;;;;;;;;;;21.40;63.70;;;;;;10328956;28;89554;-51
2023/10/03 12:32:57;;;;;;;;;;;21.40;63.70;;;;;;10328804;28;88897;-50
2023/10/03 12:37:59;;;;;;;;;;;21.40;63.70;;;;;;10329153;28;90152;-50
2023/10/03 12:43:01;;;;;;;;;;;21.40;63.70;;;;;;10326925;28;88225;-49
2023/10/03 12:48:04;;;;;;;;;;;21.40;63.60;;;;;;10326180;28;89730;-54
2023/10/03 12:53:10;;;;;;;;;;;21.40;63.40;;;;;;10325777;28;88007;-53
2023/10/03 12:58:18;;;;;;;;;;;21.40;63.40;;;;;;10319401;28;88274;-55
2023/10/03 13:03:20;;;;;;;;;;;21.40;63.40;;;;;;10320167;28;89642;-50
2023/10/03 13:08:25;;;;;;;;;;;21.40;63.40;;;;;;10320309;28;90029;-51
2023/10/03 13:13:27;;;;;;;;;;;21.40;63.40;;;;;;10331537;28;90212;-52
2023/10/03 13:18:29;;;;;;;;;;;21.50;63.50;;;;;;10331622;28;88340;-52
2023/10/03 13:23:31;;;;;;;;;;;21.40;63.40;;;;;;10331013;28;89239;-53
2023/10/03 13:28:33;;;;;;;;;;;21.50;63.40;;;;;;10326194;28;88272;-51
2023/10/03 13:33:36;;;;;;;;;;;21.50;63.40;;;;;;10329417;28;88139;-49
2023/10/03 13:38:39;;;;;;;;;;;21.50;63.30;;;;;;10329298;28;88864;-51
2023/10/03 13:43:41;;;;;;;;;;;21.50;63.20;;;;;;10330517;28;89245;-50
2023/10/03 13:48:43;;;;;;;;;;;21.50;63.10;;;;;;10320000;28;88391;-52
2023/10/03 13:53:45;;;;;;;;;;;21.50;63.20;;;;;;10332021;28;90657;-49
2023/10/03 13:58:49;;;;;;;;;;;21.50;63.10;;;;;;10323538;28;87717;-54
2023/10/03 14:03:51;;;;;;;;;;;21.50;63.10;;;;;;10324374;28;89235;-54
2023/10/03 14:08:53;;;;;;;;;;;21.50;63.20;;;;;;10323045;28;89849;-54
2023/10/03 14:13:55;;;;;;;;;;;21.50;63.10;;;;;;10330726;28;88075;-50
2023/10/03 14:18:57;;;;;;;;;;;21.50;63.10;;;;;;10329613;28;90433;-53
2023/10/03 14:23:59;;;;;;;;;;;21.50;63.10;;;;;;10322203;28;88019;-52
2023/10/03 14:29:04;;;;;;;;;;;21.50;63.00;;;;;;10320579;28;88476;-49
2023/10/03 14:34:06;;;;;;;;;;;21.50;63.00;;;;;;10317588;28;89216;-48
2023/10/03 14:39:12;;;;;;;;;;;21.60;63.00;;;;;;10328099;28;88218;-53
2023/10/03 14:44:14;;;;;;;;;;;21.50;62.90;;;;;;10320591;28;88198;-56
2023/10/03 14:49:16;;;;;;;;;;;21.60;63.00;;;;;;10327017;28;88277;-49
2023/10/03 14:54:18;;;;;;;;;;;21.60;63.00;;;;;;10319519;28;88304;-51
2023/10/03 14:59:24;;;;;;;;;;;21.50;62.90;;;;;;10320844;28;88551;-50
2023/10/03 15:04:26;;;;;;;;;;;21.50;62.90;;;;;;10320615;28;89449;-49
2023/10/03 15:09:31;;;;;;;;;;;21.50;63.00;;;;;;10314726;28;89433;-50
2023/10/03 15:14:33;;;;;;;;;;;21.60;63.20;;;;;;10322731;28;89260;-50
2023/10/03 15:19:35;;;;;;;;;;;21.50;63.10;;;;;;10322016;28;89622;-53
2023/10/03 15:24:38;;;;;;;;;;;21.50;63.10;;;;;;10327379;28;87811;-51
2023/10/03 15:29:39;;;;;;;;;;;21.50;63.10;;;;;;10325104;28;89120;-50
2023/10/03 15:34:41;;;;;;;;;;;21.40;63.20;;;;;;10325894;28;88254;-52
2023/10/03 15:39:43;;;;;;;;;;;21.50;63.20;;;;;;10333624;28;88826;-52
2023/10/03 15:44:46;;;;;;;;;;;21.40;63.10;;;;;;10330891;28;89229;-51
2023/10/03 15:50:07;;;;;;;;;;;21.50;64.10;;;;;;10343098;28;91446;-51
2023/10/03 15:55:14;;;;;;;;;;;21.50;63.10;;;;;;10346248;28;89460;-50
2023/10/03 16:00:19;;;;;;;;;;;21.40;63.10;;;;;;10333160;28;89392;-53
2023/10/03 16:05:24;;;;;;;;;;;21.40;63.10;;;;;;10333115;28;88561;-53
2023/10/03 16:10:30;;;;;;;;;;;21.40;63.10;;;;;;10332436;28;88265;-52
2023/10/03 16:15:34;;;;;;;;;;;21.40;63.10;;;;;;10339016;28;88219;-52
2023/10/03 16:20:37;;;;;;;;;;;21.40;63.00;;;;;;10345771;28;89384;-53
2023/10/03 16:25:39;;;;;;;;;;;21.40;63.00;;;;;;10321263;28;88972;-52
2023/10/03 16:30:44;;;;;;;;;;;21.40;63.10;;;;;;10338131;28;89226;-55
2023/10/03 16:35:46;;;;;;;;;;;21.40;63.10;;;;;;10329638;28;89610;-51
2023/10/03 16:40:48;;;;;;;;;;;21.30;63.00;;;;;;10329961;28;88933;-53
2023/10/03 16:45:50;;;;;;;;;;;21.30;63.00;;;;;;10332042;28;88487;-48
2023/10/03 16:50:52;;;;;;;;;;;21.40;63.00;;;;;;10324110;28;89450;-50
2023/10/03 16:55:54;;;;;;;;;;;21.30;63.00;;;;;;10322137;28;89412;-51
2023/10/03 17:00:55;;;;;;;;;;;21.30;63.00;;;;;;10326486;28;89211;-51
2023/10/03 17:05:57;;;;;;;;;;;21.30;62.90;;;;;;10327406;28;89999;-52
2023/10/03 17:11:00;;;;;;;;;;;21.30;62.90;;;;;;10330856;28;88103;-52
2023/10/03 17:16:02;;;;;;;;;;;21.30;62.80;;;;;;10330151;28;88273;-52
2023/10/03 17:21:05;;;;;;;;;;;21.30;62.90;;;;;;10314909;28;89321;-48
2023/10/03 17:26:07;;;;;;;;;;;21.30;62.80;;;;;;10333679;28;88929;-53
2023/10/03 17:31:09;;;;;;;;;;;21.30;62.70;;;;;;10323570;28;89351;-52
2023/10/03 17:36:11;;;;;;;;;;;21.30;62.70;;;;;;10323990;28;89053;-53
2023/10/03 17:41:12;;;;;;;;;;;21.30;62.60;;;;;;10325975;28;90353;-52
2023/10/03 17:46:15;;;;;;;;;;;21.30;62.60;;;;;;10324998;28;89572;-53
2023/10/03 17:51:17;;;;;;;;;;;21.30;62.60;;;;;;10320055;28;89323;-53
2023/10/03 17:56:18;;;;;;;;;;;21.30;62.50;;;;;;10329051;28;89128;-50
2023/10/03 18:01:23;;;;;;;;;;;21.40;62.50;;;;;;10329602;28;89306;-53
2023/10/03 18:06:25;;;;;;;;;;;21.30;62.50;;;;;;10325414;28;89080;-48
2023/10/03 18:11:27;;;;;;;;;;;21.30;62.40;;;;;;10317335;28;90326;-49
2023/10/03 18:16:29;;;;;;;;;;;21.30;62.40;;;;;;10321433;28;89772;-51
2023/10/03 18:21:31;;;;;;;;;;;21.40;62.50;;;;;;10328383;28;89236;-53
2023/10/03 18:26:35;;;;;;;;;;;21.30;62.40;;;;;;10334164;28;89279;-53
2023/10/03 18:31:37;;;;;;;;;;;21.30;62.40;;;;;;10325263;28;89336;-53
2023/10/03 18:36:39;;;;;;;;;;;21.30;62.50;;;;;;10328351;28;88774;-52
2023/10/03 18:41:41;;;;;;;;;;;21.30;62.40;;;;;;10327388;28;89547;-48
2023/10/03 18:46:43;;;;;;;;;;;21.30;62.40;;;;;;10329708;28;88249;-50
2023/10/03 18:51:46;;;;;;;;;;;21.30;62.50;;;;;;10327284;28;89645;-48
2023/10/03 18:56:48;;;;;;;;;;;21.30;62.40;;;;;;10327945;28;89299;-50
2023/10/03 19:01:50;;;;;;;;;;;21.30;62.50;;;;;;10315644;28;89373;-49
2023/10/03 19:06:53;;;;;;;;;;;21.30;62.60;;;;;;10327707;28;89276;-52
2023/10/03 19:11:55;;;;;;;;;;;21.30;62.50;;;;;;10331707;28;89501;-52
2023/10/03 19:16:57;;;;;;;;;;;21.20;62.40;;;;;;10334928;28;90049;-52
2023/10/03 19:21:59;;;;;;;;;;;21.20;62.40;;;;;;10325206;28;87916;-51
2023/10/03 19:27:03;;;;;;;;;;;21.20;62.40;;;;;;10340982;28;90012;-48
2023/10/03 19:32:05;;;;;;;;;;;21.20;62.40;;;;;;10328865;28;89001;-50
2023/10/03 19:37:07;;;;;;;;;;;21.20;62.40;;;;;;10331215;28;90904;-52
2023/10/03 19:42:09;;;;;;;;;;;21.20;62.40;;;;;;10299545;28;88971;-52
2023/10/03 19:47:11;;;;;;;;;;;21.20;62.40;;;;;;10347048;28;90146;-49
2023/10/03 19:52:13;;;;;;;;;;;21.20;62.40;;;;;;10332644;28;90337;-53
2023/10/03 19:57:16;;;;;;;;;;;21.20;62.40;;;;;;10318173;28;88600;-54
2023/10/03 20:02:18;;;;;;;;;;;21.10;62.30;;;;;;10311426;28;90039;-50
2023/10/03 20:07:19;;;;;;;;;;;21.10;62.30;;;;;;10332545;28;90134;-49
2023/10/03 20:12:21;;;;;;;;;;;21.10;62.30;;;;;;10332606;28;89834;-50
2023/10/03 20:17:23;;;;;;;;;;;21.10;62.40;;;;;;10320754;28;89511;-52
2023/10/03 20:22:25;;;;;;;;;;;21.10;62.20;;;;;;10332323;28;89062;-52
2023/10/03 20:27:27;;;;;;;;;;;21.10;62.30;;;;;;10325884;28;90409;-53
2023/10/03 20:32:29;;;;;;;;;;;21.10;62.20;;;;;;10335672;28;92060;-60
2023/10/03 20:37:31;;;;;;;;;;;21.10;61.80;;;;;;10330964;28;89906;-54
2023/10/03 20:42:32;;;;;;;;;;;21.10;61.00;;;;;;10330810;28;89012;-50
2023/10/03 20:47:34;;;;;;;;;;;21.10;60.70;;;;;;10335252;28;90032;-48
2023/10/03 20:52:36;;;;;;;;;;;21.10;60.30;;;;;;10336583;28;89199;-49
2023/10/03 20:57:39;;;;;;;;;;;21.10;60.00;;;;;;10334959;28;90028;-49
2023/10/03 21:02:41;;;;;;;;;;;21.10;59.60;;;;;;10338649;28;90032;-51
2023/10/03 21:07:45;;;;;;;;;;;21.20;59.40;;;;;;10338415;28;88931;-52
2023/10/03 21:12:49;;;;;;;;;;;21.20;59.10;;;;;;10337095;28;90089;-52
2023/10/03 21:17:51;;;;;;;;;;;21.20;58.80;;;;;;10314951;28;90549;-52
2023/10/03 21:22:54;;;;;;;;;;;21.20;58.50;;;;;;10326623;28;89371;-52
2023/10/03 21:27:56;;;;;;;;;;;21.20;58.20;;;;;;10337481;28;90065;-48
2023/10/03 21:32:58;;;;;;;;;;;21.20;58.00;;;;;;10334764;28;89059;-49
2023/10/03 21:38:01;;;;;;;;;;;21.20;57.80;;;;;;10324031;28;89216;-48
2023/10/03 21:43:03;;;;;;;;;;;21.30;57.70;;;;;;10323506;28;89981;-49
2023/10/03 21:48:06;;;;;;;;;;;21.20;57.40;;;;;;10327566;28;89959;-53
2023/10/03 21:53:09;;;;;;;;;;;21.20;57.20;;;;;;10319257;28;89384;-50
2023/10/03 21:58:11;;;;;;;;;;;21.20;57.10;;;;;;10327719;28;90145;-53
2023/10/03 22:03:14;;;;;;;;;;;21.20;56.90;;;;;;10327214;28;88134;-51
2023/10/03 22:08:16;;;;;;;;;;;21.20;56.70;;;;;;10328719;28;91201;-48
2023/10/03 22:13:18;;;;;;;;;;;21.30;56.60;;;;;;10326853;28;90361;-48
2023/10/03 22:18:20;;;;;;;;;;;21.30;56.40;;;;;;10326104;28;90181;-51
2023/10/03 22:23:22;;;;;;;;;;;21.20;56.30;;;;;;10315033;28;88954;-54
2023/10/03 22:28:24;;;;;;;;;;;21.20;56.10;;;;;;10336056;28;89332;-54
2023/10/03 22:33:26;;;;;;;;;;;21.20;56.00;;;;;;10332217;28;89372;-54
2023/10/03 22:38:27;;;;;;;;;;;21.20;55.90;;;;;;10320724;28;89351;-53
2023/10/03 22:43:29;;;;;;;;;;;21.20;55.90;;;;;;10323857;28;89440;-49
2023/10/03 22:48:31;;;;;;;;;;;21.20;55.70;;;;;;10327439;28;89887;-53
2023/10/03 22:53:33;;;;;;;;;;;21.20;55.60;;;;;;10326091;28;89575;-51
2023/10/03 22:58:35;;;;;;;;;;;21.20;55.40;;;;;;10324363;28;90416;-51
2023/10/03 23:03:37;;;;;;;;;;;21.20;55.40;;;;;;10314438;28;90063;-49
2023/10/03 23:08:40;;;;;;;;;;;21.20;55.30;;;;;;10324735;28;90590;-50
2023/10/03 23:13:41;;;;;;;;;;;21.20;55.30;;;;;;10313619;28;90864;-53
2023/10/03 23:18:43;;;;;;;;;;;21.10;55.20;;;;;;10320929;28;89661;-52
2023/10/03 23:23:46;;;;;;;;;;;21.10;55.10;;;;;;10353330;28;89719;-50
2023/10/03 23:28:47;;;;;;;;;;;21.10;55.00;;;;;;10318883;28;90310;-49
2023/10/03 23:33:50;;;;;;;;;;;21.10;55.00;;;;;;10331906;28;89551;-52
2023/10/03 23:38:52;;;;;;;;;;;21.10;54.90;;;;;;10302508;28;90251;-54
2023/10/03 23:43:54;;;;;;;;;;;21.10;54.90;;;;;;10313218;28;89070;-51
2023/10/03 23:48:55;;;;;;;;;;;21.10;54.70;;;;;;10309890;28;89747;-51
2023/10/03 23:53:57;;;;;;;;;;;21.10;54.70;;;;;;10308760;28;90131;-48
2023/10/03 23:59:01;;;;;;;;;;;21.10;54.60;;;;;;10331792;28;90131;-48
